createdAt,value
2023-02-23T00:06:44.367Z,16.98
2023-02-23T00:16:47.263Z,16.63
2023-02-23T00:26:51.797Z,16.58
2023-02-23T00:36:55.590Z,16.63
2023-02-23T00:46:59.614Z,16.90
2023-02-23T00:57:02.237Z,16.05
2023-02-23T01:07:06.710Z,16.95
2023-02-23T01:17:09.317Z,17.98
2023-02-23T01:27:13.680Z,17.50
2023-02-23T01:37:16.439Z,21.17
2023-02-23T01:47:20.684Z,21.27
2023-02-23T01:57:26.914Z,21.63
2023-02-23T02:07:34.998Z,20.83
2023-02-23T02:17:45.016Z,20.33
2023-02-23T02:28:29.604Z,18.73
2023-02-23T02:38:50.519Z,20.10
2023-02-23T02:49:00.421Z,20.13
2023-02-23T02:59:06.047Z,20.30
2023-02-23T03:09:35.859Z,21.05
2023-02-23T03:20:06.487Z,20.90
2023-02-23T03:40:57.588Z,22.35
2023-02-23T03:51:22.434Z,21.25
2023-02-23T04:01:46.912Z,23.35
2023-02-23T04:12:16.752Z,23.50
2023-02-23T04:22:21.267Z,22.67
2023-02-23T04:32:23.975Z,22.17
2023-02-23T04:42:28.706Z,21.52
2023-02-23T04:52:31.344Z,20.48
2023-02-23T05:02:35.295Z,21.55
2023-02-23T05:12:38.057Z,22.30
2023-02-23T05:22:42.658Z,21.20
2023-02-23T05:32:45.388Z,22.38
2023-02-23T05:42:49.328Z,22.70
2023-02-23T05:52:51.934Z,21.98
2023-02-23T06:02:56.242Z,24.33
2023-02-23T06:12:58.897Z,22.80
2023-02-23T06:23:02.889Z,22.60
2023-02-23T06:33:06.105Z,22.73
2023-02-23T06:43:10.186Z,23.17
2023-02-23T06:53:12.820Z,22.75
2023-02-23T07:03:17.079Z,21.98
2023-02-23T07:13:20.442Z,23.88
2023-02-23T07:23:24.887Z,21.45
2023-02-23T07:33:27.645Z,20.05
2023-02-23T07:43:32.008Z,18.55
2023-02-23T07:53:34.597Z,21.70
2023-02-23T08:03:38.737Z,21.63
2023-02-23T08:13:41.374Z,23.67
2023-02-23T08:23:45.461Z,21.95
2023-02-23T08:33:48.231Z,20.48
2023-02-23T08:43:52.239Z,20.90
2023-02-23T08:53:57.092Z,18.90
2023-02-23T09:04:01.826Z,18.52
2023-02-23T09:14:04.591Z,17.85
2023-02-23T09:24:11.217Z,16.45
2023-02-23T09:34:13.977Z,15.55
2023-02-23T09:44:26.204Z,15.30
2023-02-23T09:54:33.522Z,14.13
2023-02-23T10:04:43.651Z,14.35
2023-02-23T10:15:06.390Z,15.45
2023-02-23T10:25:14.645Z,15.95
2023-02-23T10:35:24.563Z,14.77
2023-02-23T10:45:30.350Z,15.37
2023-02-23T10:55:34.080Z,16.38
2023-02-23T11:05:46.293Z,16.17
2023-02-23T11:15:51.125Z,18.02
2023-02-23T11:25:56.714Z,17.85
2023-02-23T11:36:01.603Z,18.60
2023-02-23T11:46:05.919Z,17.52
2023-02-23T11:56:11.136Z,14.70
2023-02-23T12:06:30.610Z,12.82
2023-02-23T12:16:38.491Z,11.50
2023-02-23T12:26:51.407Z,11.73
2023-02-23T12:36:58.844Z,10.73
2023-02-23T12:47:08.677Z,11.82
2023-02-23T12:57:23.712Z,11.87
2023-02-23T13:07:34.976Z,13.05
2023-02-23T13:17:42.107Z,12.60
2023-02-23T13:27:52.328Z,12.68
2023-02-23T13:38:00.964Z,13.85
2023-02-23T13:48:13.442Z,10.45
2023-02-23T13:58:18.995Z,10.65
2023-02-23T14:08:28.026Z,10.77
2023-02-23T14:18:33.558Z,11.05
2023-02-23T14:28:39.175Z,9.70
2023-02-23T14:38:47.929Z,2.83
2023-02-23T14:49:01.394Z,3.92
2023-02-23T14:59:08.352Z,5.75
2023-02-23T15:09:18.820Z,3.10
2023-02-23T15:19:24.630Z,4.65
2023-02-23T15:29:33.170Z,3.20
2023-02-23T15:39:38.653Z,3.38
2023-02-23T15:49:42.726Z,3.92
2023-02-23T15:59:47.679Z,5.40
2023-02-23T16:09:54.437Z,2.88
2023-02-23T16:20:11.204Z,3.08
2023-02-23T16:30:23.208Z,3.75
2023-02-23T16:40:26.072Z,3.25
2023-02-23T16:50:30.389Z,1.45
2023-02-23T17:00:34.306Z,2.47
2023-02-23T17:10:41.228Z,1.75
2023-02-23T17:20:44.178Z,1.52
2023-02-23T17:30:48.598Z,1.77
2023-02-23T17:40:51.435Z,1.67
2023-02-23T17:51:00.886Z,1.48
2023-02-23T18:01:05.608Z,1.83
2023-02-23T18:11:10.407Z,1.90
2023-02-23T18:21:15.459Z,1.80
2023-02-23T18:31:22.228Z,1.75
2023-02-23T18:41:28.602Z,1.70
2023-02-23T18:51:33.289Z,1.80
2023-02-23T19:01:37.560Z,1.88
2023-02-23T19:11:43.566Z,1.70
2023-02-23T19:21:47.320Z,1.88
2023-02-23T19:31:51.725Z,2.08
2023-02-23T19:41:54.431Z,2.08
2023-02-23T19:51:58.376Z,2.05
2023-02-23T20:02:01.000Z,2.10
2023-02-23T20:12:05.737Z,1.70
2023-02-23T20:22:08.939Z,1.63
2023-02-23T20:32:12.992Z,2.25
2023-02-23T20:42:15.659Z,1.60
2023-02-23T20:52:19.627Z,2.30
2023-02-23T21:02:22.322Z,1.95
2023-02-23T21:12:26.965Z,1.33
2023-02-23T21:22:29.581Z,1.70
2023-02-23T21:32:35.211Z,1.70
2023-02-23T21:42:39.350Z,2.20
2023-02-23T21:52:45.426Z,1.90
2023-02-23T22:02:48.417Z,1.45
2023-02-23T22:12:55.806Z,2.50
2023-02-23T22:22:58.612Z,0.90
2023-02-23T22:33:02.691Z,1.27
2023-02-23T22:43:08.729Z,1.08
2023-02-23T22:53:12.824Z,0.73
2023-02-23T23:03:15.452Z,0.80
2023-02-23T23:13:19.518Z,1.65
2023-02-23T23:23:25.925Z,1.35
2023-02-23T23:33:30.501Z,0.77
2023-02-23T23:43:36.864Z,1.45
2023-02-23T23:53:40.878Z,0.77
